Irondale, Colorado
Current Conditions -  °F | °C
As of 9:53 AM on Friday 31 Oct 2014 (Local Time) from KDEN Reporting Station
Broken Clouds Broken Clouds  
Wind Chill: 35°   Ceiling: 22000
Heat Index: 40°   Visibility: 10mi
Dew Point: 28°   Wind: 7mph
Humidity: 63%   Direction: 270°W
Pressure: 30.32"   Gusts: NA
Location:  39.8641°N, 104.821°W
Report Text: KDEN 311553Z 27006KT 10SM FEW140 BKN220 04/M02 A3032 RMK AO2 SLP260 T00441022
Loading
Personal Weather Stations






























Interactive Weather Map
Tropical Storm Tracking
New forecast layout! Learn more

10-Day Weather Forecast

Advertisements
Track Severe Weather on mobile